sensor_id;sensor_type;location;lat;lon;timestamp;temperature;humidity
4896;DHT22;2463;49.948;8.472;2023-08-21T00:01:34;23.80;99.90
4896;DHT22;2463;49.948;8.472;2023-08-21T00:04:01;23.60;99.90
4896;DHT22;2463;49.948;8.472;2023-08-21T00:06:28;23.60;99.90
4896;DHT22;2463;49.948;8.472;2023-08-21T00:08:55;23.60;99.90
4896;DHT22;2463;49.948;8.472;2023-08-21T00:11:21;23.60;99.90
4896;DHT22;2463;49.948;8.472;2023-08-21T00:13:48;23.40;99.90
4896;DHT22;2463;49.948;8.472;2023-08-21T00:16:17;24.30;99.90
4896;DHT22;2463;49.948;8.472;2023-08-21T00:18:44;23.50;99.90
4896;DHT22;2463;49.948;8.472;2023-08-21T00:21:11;23.50;99.90
4896;DHT22;2463;49.948;8.472;2023-08-21T00:23:38;23.40;99.90
4896;DHT22;2463;49.948;8.472;2023-08-21T00:26:05;23.40;99.90
4896;DHT22;2463;49.948;8.472;2023-08-21T00:28:31;23.30;99.90
4896;DHT22;2463;49.948;8.472;2023-08-21T00:31:01;23.30;99.90
4896;DHT22;2463;49.948;8.472;2023-08-21T00:33:29;23.20;99.90
4896;DHT22;2463;49.948;8.472;2023-08-21T00:35:55;23.10;99.90
4896;DHT22;2463;49.948;8.472;2023-08-21T00:38:23;23.10;99.90
4896;DHT22;2463;49.948;8.472;2023-08-21T00:40:50;23.10;99.90
4896;DHT22;2463;49.948;8.472;2023-08-21T00:43:17;23.10;99.90
4896;DHT22;2463;49.948;8.472;2023-08-21T00:45:45;23.10;99.90
4896;DHT22;2463;49.948;8.472;2023-08-21T00:48:13;23.10;99.90
4896;DHT22;2463;49.948;8.472;2023-08-21T00:50:41;23.10;99.90
4896;DHT22;2463;49.948;8.472;2023-08-21T00:53:08;23.00;99.90
4896;DHT22;2463;49.948;8.472;2023-08-21T00:55:35;23.10;99.90
4896;DHT22;2463;49.948;8.472;2023-08-21T00:58:02;23.00;99.90
4896;DHT22;2463;49.948;8.472;2023-08-21T01:00:31;23.00;99.90
4896;DHT22;2463;49.948;8.472;2023-08-21T01:02:57;22.90;99.90
4896;DHT22;2463;49.948;8.472;2023-08-21T01:05:24;22.90;99.90
4896;DHT22;2463;49.948;8.472;2023-08-21T01:08:11;22.90;99.90
4896;DHT22;2463;49.948;8.472;2023-08-21T01:10:49;23.70;99.90
4896;DHT22;2463;49.948;8.472;2023-08-21T01:16:03;22.90;99.90
4896;DHT22;2463;49.948;8.472;2023-08-21T01:18:32;22.90;99.90
4896;DHT22;2463;49.948;8.472;2023-08-21T01:21:02;22.90;99.90
4896;DHT22;2463;49.948;8.472;2023-08-21T01:23:37;22.90;99.90
4896;DHT22;2463;49.948;8.472;2023-08-21T01:26:04;22.80;99.90
4896;DHT22;2463;49.948;8.472;2023-08-21T01:28:32;22.70;99.90
4896;DHT22;2463;49.948;8.472;2023-08-21T01:31:11;22.70;99.90
4896;DHT22;2463;49.948;8.472;2023-08-21T01:33:48;22.60;99.90
4896;DHT22;2463;49.948;8.472;2023-08-21T01:36:15;22.60;99.90
4896;DHT22;2463;49.948;8.472;2023-08-21T01:38:43;22.60;99.90
4896;DHT22;2463;49.948;8.472;2023-08-21T01:41:10;22.60;99.90
4896;DHT22;2463;49.948;8.472;2023-08-21T01:43:36;22.60;99.90
4896;DHT22;2463;49.948;8.472;2023-08-21T01:46:03;22.60;99.90
4896;DHT22;2463;49.948;8.472;2023-08-21T01:48:30;22.40;99.90
4896;DHT22;2463;49.948;8.472;2023-08-21T01:50:57;22.50;99.90
4896;DHT22;2463;49.948;8.472;2023-08-21T01:53:23;22.50;99.90
4896;DHT22;2463;49.948;8.472;2023-08-21T01:55:50;22.50;99.90
4896;DHT22;2463;49.948;8.472;2023-08-21T01:58:17;22.40;99.90
4896;DHT22;2463;49.948;8.472;2023-08-21T02:00:46;22.40;99.90
4896;DHT22;2463;49.948;8.472;2023-08-21T02:03:13;22.40;99.90
4896;DHT22;2463;49.948;8.472;2023-08-21T02:05:40;22.40;99.90
4896;DHT22;2463;49.948;8.472;2023-08-21T02:08:12;22.40;99.90
4896;DHT22;2463;49.948;8.472;2023-08-21T02:10:52;22.40;99.90
4896;DHT22;2463;49.948;8.472;2023-08-21T02:13:19;22.40;99.90
4896;DHT22;2463;49.948;8.472;2023-08-21T02:15:46;22.30;99.90
4896;DHT22;2463;49.948;8.472;2023-08-21T02:18:13;22.40;99.90
4896;DHT22;2463;49.948;8.472;2023-08-21T02:20:40;22.40;99.90
4896;DHT22;2463;49.948;8.472;2023-08-21T02:23:06;22.30;99.90
4896;DHT22;2463;49.948;8.472;2023-08-21T02:25:34;22.30;99.90
4896;DHT22;2463;49.948;8.472;2023-08-21T02:28:00;22.20;99.90
4896;DHT22;2463;49.948;8.472;2023-08-21T02:30:28;22.20;99.90
4896;DHT22;2463;49.948;8.472;2023-08-21T02:32:55;22.20;99.90
4896;DHT22;2463;49.948;8.472;2023-08-21T02:35:22;22.20;99.90
4896;DHT22;2463;49.948;8.472;2023-08-21T02:37:49;22.20;99.90
4896;DHT22;2463;49.948;8.472;2023-08-21T02:40:15;22.20;99.90
4896;DHT22;2463;49.948;8.472;2023-08-21T02:42:42;22.20;99.90
4896;DHT22;2463;49.948;8.472;2023-08-21T02:45:09;22.20;99.90
4896;DHT22;2463;49.948;8.472;2023-08-21T02:47:39;22.20;99.90
4896;DHT22;2463;49.948;8.472;2023-08-21T02:50:08;22.20;99.90
4896;DHT22;2463;49.948;8.472;2023-08-21T02:52:35;22.20;99.90
4896;DHT22;2463;49.948;8.472;2023-08-21T02:55:04;22.10;99.90
4896;DHT22;2463;49.948;8.472;2023-08-21T02:57:31;22.10;99.90
4896;DHT22;2463;49.948;8.472;2023-08-21T02:59:57;22.20;99.90
4896;DHT22;2463;49.948;8.472;2023-08-21T03:02:24;22.10;99.90
4896;DHT22;2463;49.948;8.472;2023-08-21T03:04:52;22.20;99.90
4896;DHT22;2463;49.948;8.472;2023-08-21T03:07:19;22.00;99.90
4896;DHT22;2463;49.948;8.472;2023-08-21T03:09:47;22.00;99.90
4896;DHT22;2463;49.948;8.472;2023-08-21T03:12:13;22.10;99.90
4896;DHT22;2463;49.948;8.472;2023-08-21T03:14:40;22.20;99.90
4896;DHT22;2463;49.948;8.472;2023-08-21T03:17:08;21.80;99.90
4896;DHT22;2463;49.948;8.472;2023-08-21T03:19:34;22.00;99.90
4896;DHT22;2463;49.948;8.472;2023-08-21T03:22:01;22.00;99.90
4896;DHT22;2463;49.948;8.472;2023-08-21T03:24:28;22.00;99.90
4896;DHT22;2463;49.948;8.472;2023-08-21T03:26:55;21.90;99.90
4896;DHT22;2463;49.948;8.472;2023-08-21T03:29:22;22.00;99.90
4896;DHT22;2463;49.948;8.472;2023-08-21T03:31:49;22.00;99.90
4896;DHT22;2463;49.948;8.472;2023-08-21T03:34:16;22.00;99.90
4896;DHT22;2463;49.948;8.472;2023-08-21T03:36:42;21.90;99.90
4896;DHT22;2463;49.948;8.472;2023-08-21T03:39:09;21.90;99.90
4896;DHT22;2463;49.948;8.472;2023-08-21T03:41:36;21.90;99.90
4896;DHT22;2463;49.948;8.472;2023-08-21T03:44:03;21.90;99.90
4896;DHT22;2463;49.948;8.472;2023-08-21T03:46:30;22.00;99.90
4896;DHT22;2463;49.948;8.472;2023-08-21T03:48:56;22.00;99.90
4896;DHT22;2463;49.948;8.472;2023-08-21T03:51:23;22.00;99.90
4896;DHT22;2463;49.948;8.472;2023-08-21T03:53:50;21.80;99.90
4896;DHT22;2463;49.948;8.472;2023-08-21T03:56:17;22.00;99.90
4896;DHT22;2463;49.948;8.472;2023-08-21T03:58:45;21.80;99.90
4896;DHT22;2463;49.948;8.472;2023-08-21T04:01:11;21.80;99.90
4896;DHT22;2463;49.948;8.472;2023-08-21T04:03:38;21.70;99.90
4896;DHT22;2463;49.948;8.472;2023-08-21T04:06:05;21.80;99.90
4896;DHT22;2463;49.948;8.472;2023-08-21T04:08:32;21.80;99.90
4896;DHT22;2463;49.948;8.472;2023-08-21T04:10:58;21.80;99.90
4896;DHT22;2463;49.948;8.472;2023-08-21T04:13:26;21.80;99.90
4896;DHT22;2463;49.948;8.472;2023-08-21T04:15:53;21.80;99.90
4896;DHT22;2463;49.948;8.472;2023-08-21T04:18:21;21.80;99.90
4896;DHT22;2463;49.948;8.472;2023-08-21T04:21:06;21.80;99.90
4896;DHT22;2463;49.948;8.472;2023-08-21T04:23:33;21.90;99.90
4896;DHT22;2463;49.948;8.472;2023-08-21T04:26:01;21.70;99.90
4896;DHT22;2463;49.948;8.472;2023-08-21T04:28:30;21.70;99.90
4896;DHT22;2463;49.948;8.472;2023-08-21T04:30:57;21.60;99.90
4896;DHT22;2463;49.948;8.472;2023-08-21T04:33:25;21.60;99.90
4896;DHT22;2463;49.948;8.472;2023-08-21T04:35:52;21.60;99.90
4896;DHT22;2463;49.948;8.472;2023-08-21T04:38:19;21.60;99.90
4896;DHT22;2463;49.948;8.472;2023-08-21T04:40:46;21.60;99.90
4896;DHT22;2463;49.948;8.472;2023-08-21T04:43:12;21.60;99.90
4896;DHT22;2463;49.948;8.472;2023-08-21T04:45:48;21.60;99.90
4896;DHT22;2463;49.948;8.472;2023-08-21T04:48:16;21.60;99.90
4896;DHT22;2463;49.948;8.472;2023-08-21T04:50:43;21.60;99.90
4896;DHT22;2463;49.948;8.472;2023-08-21T04:53:10;21.60;99.90
4896;DHT22;2463;49.948;8.472;2023-08-21T04:55:37;21.60;99.90
4896;DHT22;2463;49.948;8.472;2023-08-21T04:58:07;21.60;99.90
4896;DHT22;2463;49.948;8.472;2023-08-21T05:00:34;21.60;99.90
4896;DHT22;2463;49.948;8.472;2023-08-21T05:03:01;21.60;99.90
4896;DHT22;2463;49.948;8.472;2023-08-21T05:05:28;21.60;99.90
4896;DHT22;2463;49.948;8.472;2023-08-21T05:07:55;21.60;99.90
4896;DHT22;2463;49.948;8.472;2023-08-21T05:10:21;21.70;99.90
4896;DHT22;2463;49.948;8.472;2023-08-21T05:12:48;21.70;99.90
4896;DHT22;2463;49.948;8.472;2023-08-21T05:15:15;21.60;99.90
4896;DHT22;2463;49.948;8.472;2023-08-21T05:17:43;21.60;99.90
4896;DHT22;2463;49.948;8.472;2023-08-21T05:20:10;21.60;99.90
4896;DHT22;2463;49.948;8.472;2023-08-21T05:22:40;21.60;99.90
4896;DHT22;2463;49.948;8.472;2023-08-21T05:25:08;21.70;99.90
4896;DHT22;2463;49.948;8.472;2023-08-21T05:27:34;21.70;99.90
4896;DHT22;2463;49.948;8.472;2023-08-21T05:30:01;21.70;99.90
4896;DHT22;2463;49.948;8.472;2023-08-21T05:32:28;21.70;99.90
4896;DHT22;2463;49.948;8.472;2023-08-21T05:34:55;21.80;99.90
4896;DHT22;2463;49.948;8.472;2023-08-21T05:37:21;21.80;99.90
4896;DHT22;2463;49.948;8.472;2023-08-21T05:39:48;21.90;99.90
4896;DHT22;2463;49.948;8.472;2023-08-21T05:42:15;21.90;99.90
4896;DHT22;2463;49.948;8.472;2023-08-21T05:44:42;22.00;99.90
4896;DHT22;2463;49.948;8.472;2023-08-21T05:47:08;22.00;99.90
4896;DHT22;2463;49.948;8.472;2023-08-21T05:49:35;22.00;99.90
4896;DHT22;2463;49.948;8.472;2023-08-21T05:52:02;22.10;99.90
4896;DHT22;2463;49.948;8.472;2023-08-21T05:54:29;22.10;99.90
4896;DHT22;2463;49.948;8.472;2023-08-21T05:56:57;22.20;99.90
4896;DHT22;2463;49.948;8.472;2023-08-21T05:59:30;22.20;99.90
4896;DHT22;2463;49.948;8.472;2023-08-21T06:01:57;22.30;99.90
4896;DHT22;2463;49.948;8.472;2023-08-21T06:04:25;22.50;99.90
4896;DHT22;2463;49.948;8.472;2023-08-21T06:06:52;22.40;99.90
4896;DHT22;2463;49.948;8.472;2023-08-21T06:09:19;22.60;99.90
4896;DHT22;2463;49.948;8.472;2023-08-21T06:11:46;22.60;99.90
4896;DHT22;2463;49.948;8.472;2023-08-21T06:14:13;22.70;99.90
4896;DHT22;2463;49.948;8.472;2023-08-21T06:16:39;22.80;99.90
4896;DHT22;2463;49.948;8.472;2023-08-21T06:19:06;22.80;99.90
4896;DHT22;2463;49.948;8.472;2023-08-21T06:21:33;23.00;99.90
4896;DHT22;2463;49.948;8.472;2023-08-21T06:24:00;23.20;99.90
4896;DHT22;2463;49.948;8.472;2023-08-21T06:26:27;23.50;99.90
4896;DHT22;2463;49.948;8.472;2023-08-21T06:28:53;23.60;99.90
4896;DHT22;2463;49.948;8.472;2023-08-21T06:31:20;23.80;99.90
4896;DHT22;2463;49.948;8.472;2023-08-21T06:33:47;23.90;99.90
4896;DHT22;2463;49.948;8.472;2023-08-21T06:36:14;23.70;99.90
4896;DHT22;2463;49.948;8.472;2023-08-21T06:38:41;24.00;99.90
4896;DHT22;2463;49.948;8.472;2023-08-21T06:41:07;24.20;99.90
4896;DHT22;2463;49.948;8.472;2023-08-21T06:43:38;24.30;99.90
4896;DHT22;2463;49.948;8.472;2023-08-21T06:46:10;24.60;99.90
4896;DHT22;2463;49.948;8.472;2023-08-21T06:48:39;24.80;99.90
4896;DHT22;2463;49.948;8.472;2023-08-21T06:51:07;25.10;99.90
4896;DHT22;2463;49.948;8.472;2023-08-21T06:53:34;25.50;99.90
4896;DHT22;2463;49.948;8.472;2023-08-21T06:56:01;26.30;99.90
4896;DHT22;2463;49.948;8.472;2023-08-21T06:58:27;27.40;99.90
4896;DHT22;2463;49.948;8.472;2023-08-21T07:00:54;28.90;99.90
4896;DHT22;2463;49.948;8.472;2023-08-21T07:03:22;30.60;99.90
4896;DHT22;2463;49.948;8.472;2023-08-21T07:05:59;32.10;99.90
4896;DHT22;2463;49.948;8.472;2023-08-21T07:08:28;33.80;99.90
4896;DHT22;2463;49.948;8.472;2023-08-21T07:10:55;35.00;99.90
4896;DHT22;2463;49.948;8.472;2023-08-21T07:13:21;36.20;99.90
4896;DHT22;2463;49.948;8.472;2023-08-21T07:15:49;37.30;99.90
4896;DHT22;2463;49.948;8.472;2023-08-21T07:18:18;38.30;99.90
4896;DHT22;2463;49.948;8.472;2023-08-21T07:20:45;39.20;99.90
4896;DHT22;2463;49.948;8.472;2023-08-21T07:23:12;40.00;99.90
4896;DHT22;2463;49.948;8.472;2023-08-21T07:25:38;40.70;99.90
4896;DHT22;2463;49.948;8.472;2023-08-21T07:28:05;41.00;99.60
4896;DHT22;2463;49.948;8.472;2023-08-21T07:30:32;40.80;99.00
4896;DHT22;2463;49.948;8.472;2023-08-21T07:33:02;40.70;98.50
4896;DHT22;2463;49.948;8.472;2023-08-21T07:35:29;40.40;98.50
4896;DHT22;2463;49.948;8.472;2023-08-21T07:37:56;40.10;98.40
4896;DHT22;2463;49.948;8.472;2023-08-21T07:40:22;39.60;98.30
4896;DHT22;2463;49.948;8.472;2023-08-21T07:42:49;39.30;98.70
4896;DHT22;2463;49.948;8.472;2023-08-21T07:45:16;38.80;99.00
4896;DHT22;2463;49.948;8.472;2023-08-21T07:47:43;38.30;99.40
4896;DHT22;2463;49.948;8.472;2023-08-21T07:50:10;37.80;99.70
4896;DHT22;2463;49.948;8.472;2023-08-21T07:52:37;37.30;99.90
4896;DHT22;2463;49.948;8.472;2023-08-21T07:55:04;36.80;99.90
4896;DHT22;2463;49.948;8.472;2023-08-21T07:57:31;36.50;99.90
4896;DHT22;2463;49.948;8.472;2023-08-21T07:59:57;36.10;99.90
4896;DHT22;2463;49.948;8.472;2023-08-21T08:02:24;35.80;99.90
4896;DHT22;2463;49.948;8.472;2023-08-21T08:04:52;35.50;99.90
4896;DHT22;2463;49.948;8.472;2023-08-21T08:07:18;35.30;99.90
4896;DHT22;2463;49.948;8.472;2023-08-21T08:09:45;35.20;99.90
4896;DHT22;2463;49.948;8.472;2023-08-21T08:12:13;34.90;99.90
4896;DHT22;2463;49.948;8.472;2023-08-21T08:14:40;34.80;99.90
4896;DHT22;2463;49.948;8.472;2023-08-21T08:17:07;34.70;99.90
4896;DHT22;2463;49.948;8.472;2023-08-21T08:19:34;34.60;99.90
4896;DHT22;2463;49.948;8.472;2023-08-21T08:22:00;34.50;99.90
4896;DHT22;2463;49.948;8.472;2023-08-21T08:24:27;34.50;99.90
4896;DHT22;2463;49.948;8.472;2023-08-21T08:26:54;34.40;99.90
4896;DHT22;2463;49.948;8.472;2023-08-21T08:29:20;34.30;99.90
4896;DHT22;2463;49.948;8.472;2023-08-21T08:31:47;34.30;99.90
4896;DHT22;2463;49.948;8.472;2023-08-21T08:34:15;34.20;99.90
4896;DHT22;2463;49.948;8.472;2023-08-21T08:36:44;34.10;99.90
4896;DHT22;2463;49.948;8.472;2023-08-21T08:39:11;34.00;99.90
4896;DHT22;2463;49.948;8.472;2023-08-21T08:41:57;33.90;99.90
4896;DHT22;2463;49.948;8.472;2023-08-21T08:44:25;34.00;99.90
4896;DHT22;2463;49.948;8.472;2023-08-21T08:46:52;34.10;99.90
4896;DHT22;2463;49.948;8.472;2023-08-21T08:49:21;34.10;99.90
4896;DHT22;2463;49.948;8.472;2023-08-21T08:51:51;34.10;99.90
4896;DHT22;2463;49.948;8.472;2023-08-21T08:54:21;34.20;99.90
4896;DHT22;2463;49.948;8.472;2023-08-21T08:56:48;34.30;99.90
4896;DHT22;2463;49.948;8.472;2023-08-21T08:59:15;34.40;99.90
4896;DHT22;2463;49.948;8.472;2023-08-21T09:01:42;34.50;99.90
4896;DHT22;2463;49.948;8.472;2023-08-21T09:04:09;34.60;99.90
4896;DHT22;2463;49.948;8.472;2023-08-21T09:06:38;34.60;99.90
4896;DHT22;2463;49.948;8.472;2023-08-21T09:09:05;34.80;99.90
4896;DHT22;2463;49.948;8.472;2023-08-21T09:11:33;34.90;99.90
4896;DHT22;2463;49.948;8.472;2023-08-21T09:14:00;34.80;99.90
4896;DHT22;2463;49.948;8.472;2023-08-21T09:16:27;35.00;99.90
4896;DHT22;2463;49.948;8.472;2023-08-21T09:18:56;35.10;99.90
4896;DHT22;2463;49.948;8.472;2023-08-21T09:21:25;35.10;99.90
4896;DHT22;2463;49.948;8.472;2023-08-21T09:23:59;35.30;99.90
4896;DHT22;2463;49.948;8.472;2023-08-21T09:26:26;35.40;99.90
4896;DHT22;2463;49.948;8.472;2023-08-21T09:28:53;35.50;99.90
4896;DHT22;2463;49.948;8.472;2023-08-21T09:31:29;35.50;99.90
4896;DHT22;2463;49.948;8.472;2023-08-21T09:34:00;35.60;99.90
4896;DHT22;2463;49.948;8.472;2023-08-21T09:36:27;35.80;99.90
4896;DHT22;2463;49.948;8.472;2023-08-21T09:38:55;35.90;99.90
4896;DHT22;2463;49.948;8.472;2023-08-21T09:41:25;35.70;99.90
4896;DHT22;2463;49.948;8.472;2023-08-21T09:43:52;35.90;99.90
4896;DHT22;2463;49.948;8.472;2023-08-21T09:46:26;36.00;99.90
4896;DHT22;2463;49.948;8.472;2023-08-21T09:48:53;36.10;99.90
4896;DHT22;2463;49.948;8.472;2023-08-21T09:51:21;36.10;99.90
4896;DHT22;2463;49.948;8.472;2023-08-21T09:53:50;36.20;99.90
4896;DHT22;2463;49.948;8.472;2023-08-21T09:56:18;36.40;99.90
4896;DHT22;2463;49.948;8.472;2023-08-21T09:58:48;36.50;99.90
4896;DHT22;2463;49.948;8.472;2023-08-21T10:01:17;36.60;99.90
4896;DHT22;2463;49.948;8.472;2023-08-21T10:03:46;36.70;99.90
4896;DHT22;2463;49.948;8.472;2023-08-21T10:06:17;36.90;99.90
4896;DHT22;2463;49.948;8.472;2023-08-21T10:08:53;36.90;99.90
4896;DHT22;2463;49.948;8.472;2023-08-21T10:11:21;37.00;99.90
4896;DHT22;2463;49.948;8.472;2023-08-21T10:13:48;37.10;99.90
4896;DHT22;2463;49.948;8.472;2023-08-21T10:16:18;37.10;99.90
4896;DHT22;2463;49.948;8.472;2023-08-21T10:18:46;37.30;99.90
4896;DHT22;2463;49.948;8.472;2023-08-21T10:21:15;37.40;99.90
4896;DHT22;2463;49.948;8.472;2023-08-21T10:23:42;37.60;99.90
4896;DHT22;2463;49.948;8.472;2023-08-21T10:26:12;37.70;99.90
4896;DHT22;2463;49.948;8.472;2023-08-21T10:31:34;37.80;98.70
4896;DHT22;2463;49.948;8.472;2023-08-21T10:34:06;37.90;99.80
4896;DHT22;2463;49.948;8.472;2023-08-21T10:36:41;37.90;98.80
4896;DHT22;2463;49.948;8.472;2023-08-21T10:39:27;38.00;99.20
4896;DHT22;2463;49.948;8.472;2023-08-21T10:42:03;38.10;99.90
4896;DHT22;2463;49.948;8.472;2023-08-21T10:44:49;38.30;99.90
4896;DHT22;2463;49.948;8.472;2023-08-21T10:47:30;38.50;98.70
4896;DHT22;2463;49.948;8.472;2023-08-21T10:50:05;38.60;96.60
4896;DHT22;2463;49.948;8.472;2023-08-21T10:52:36;38.70;97.50
4896;DHT22;2463;49.948;8.472;2023-08-21T10:55:04;38.50;95.10
4896;DHT22;2463;49.948;8.472;2023-08-21T10:57:32;38.50;95.90
4896;DHT22;2463;49.948;8.472;2023-08-21T11:00:10;38.50;97.00
4896;DHT22;2463;49.948;8.472;2023-08-21T11:02:42;38.60;96.50
4896;DHT22;2463;49.948;8.472;2023-08-21T11:05:11;38.80;95.70
4896;DHT22;2463;49.948;8.472;2023-08-21T11:07:44;38.60;95.40
4896;DHT22;2463;49.948;8.472;2023-08-21T11:10:16;38.60;94.50
4896;DHT22;2463;49.948;8.472;2023-08-21T11:12:54;38.50;93.20
4896;DHT22;2463;49.948;8.472;2023-08-21T11:15:28;38.40;94.50
4896;DHT22;2463;49.948;8.472;2023-08-21T11:17:57;38.60;97.10
4896;DHT22;2463;49.948;8.472;2023-08-21T11:20:33;38.80;96.70
4896;DHT22;2463;49.948;8.472;2023-08-21T11:23:04;39.00;95.60
4896;DHT22;2463;49.948;8.472;2023-08-21T11:25:43;39.20;96.30
4896;DHT22;2463;49.948;8.472;2023-08-21T11:28:10;39.30;95.20
4896;DHT22;2463;49.948;8.472;2023-08-21T11:30:37;39.40;95.30
4896;DHT22;2463;49.948;8.472;2023-08-21T11:33:08;39.40;94.00
4896;DHT22;2463;49.948;8.472;2023-08-21T11:35:36;39.50;93.00
4896;DHT22;2463;49.948;8.472;2023-08-21T11:38:03;39.50;92.30
4896;DHT22;2463;49.948;8.472;2023-08-21T11:40:34;39.60;92.40
4896;DHT22;2463;49.948;8.472;2023-08-21T11:43:02;39.60;92.60
4896;DHT22;2463;49.948;8.472;2023-08-21T11:45:30;39.70;94.30
4896;DHT22;2463;49.948;8.472;2023-08-21T11:48:11;39.80;94.00
4896;DHT22;2463;49.948;8.472;2023-08-21T11:50:39;39.90;94.70
4896;DHT22;2463;49.948;8.472;2023-08-21T11:53:07;40.00;91.70
4896;DHT22;2463;49.948;8.472;2023-08-21T11:55:34;39.90;92.20
4896;DHT22;2463;49.948;8.472;2023-08-21T11:58:01;39.90;92.80
4896;DHT22;2463;49.948;8.472;2023-08-21T12:00:29;40.00;93.50
4896;DHT22;2463;49.948;8.472;2023-08-21T12:02:58;40.00;92.30
4896;DHT22;2463;49.948;8.472;2023-08-21T12:05:27;39.90;91.40
4896;DHT22;2463;49.948;8.472;2023-08-21T12:07:55;40.00;92.90
4896;DHT22;2463;49.948;8.472;2023-08-21T12:10:23;40.00;90.70
4896;DHT22;2463;49.948;8.472;2023-08-21T12:12:50;40.00;91.00
4896;DHT22;2463;49.948;8.472;2023-08-21T12:15:17;40.00;90.70
4896;DHT22;2463;49.948;8.472;2023-08-21T12:17:44;40.00;91.30
4896;DHT22;2463;49.948;8.472;2023-08-21T12:20:11;39.90;90.20
4896;DHT22;2463;49.948;8.472;2023-08-21T12:22:38;39.80;91.00
4896;DHT22;2463;49.948;8.472;2023-08-21T12:25:06;39.60;86.70
4896;DHT22;2463;49.948;8.472;2023-08-21T12:27:33;39.60;90.80
4896;DHT22;2463;49.948;8.472;2023-08-21T12:30:00;39.70;91.60
4896;DHT22;2463;49.948;8.472;2023-08-21T12:32:27;39.80;92.80
4896;DHT22;2463;49.948;8.472;2023-08-21T12:34:53;40.00;92.00
4896;DHT22;2463;49.948;8.472;2023-08-21T12:37:20;40.10;89.30
4896;DHT22;2463;49.948;8.472;2023-08-21T12:39:47;40.20;87.80
4896;DHT22;2463;49.948;8.472;2023-08-21T12:42:13;40.20;90.20
4896;DHT22;2463;49.948;8.472;2023-08-21T12:44:40;40.30;90.40
4896;DHT22;2463;49.948;8.472;2023-08-21T12:47:07;40.40;90.60
4896;DHT22;2463;49.948;8.472;2023-08-21T12:49:34;40.50;86.40
4896;DHT22;2463;49.948;8.472;2023-08-21T12:52:02;40.50;89.50
4896;DHT22;2463;49.948;8.472;2023-08-21T12:54:30;40.50;83.30
4896;DHT22;2463;49.948;8.472;2023-08-21T12:56:57;40.50;85.70
4896;DHT22;2463;49.948;8.472;2023-08-21T12:59:24;40.50;84.50
4896;DHT22;2463;49.948;8.472;2023-08-21T13:01:51;40.40;81.90
4896;DHT22;2463;49.948;8.472;2023-08-21T13:04:17;39.90;78.40
4896;DHT22;2463;49.948;8.472;2023-08-21T13:06:44;39.40;83.30
4896;DHT22;2463;49.948;8.472;2023-08-21T13:09:11;39.40;88.00
4896;DHT22;2463;49.948;8.472;2023-08-21T13:11:38;39.40;80.50
4896;DHT22;2463;49.948;8.472;2023-08-21T13:14:05;39.30;82.80
4896;DHT22;2463;49.948;8.472;2023-08-21T13:16:32;39.00;84.00
4896;DHT22;2463;49.948;8.472;2023-08-21T13:18:58;38.90;89.80
4896;DHT22;2463;49.948;8.472;2023-08-21T13:21:25;39.00;90.00
4896;DHT22;2463;49.948;8.472;2023-08-21T13:23:52;39.10;80.10
4896;DHT22;2463;49.948;8.472;2023-08-21T13:26:19;39.20;84.10
4896;DHT22;2463;49.948;8.472;2023-08-21T13:28:45;39.20;83.30
4896;DHT22;2463;49.948;8.472;2023-08-21T13:31:12;39.10;81.40
4896;DHT22;2463;49.948;8.472;2023-08-21T13:33:46;39.00;78.90
4896;DHT22;2463;49.948;8.472;2023-08-21T13:36:17;38.80;82.50
4896;DHT22;2463;49.948;8.472;2023-08-21T13:38:44;38.80;78.10
4896;DHT22;2463;49.948;8.472;2023-08-21T13:41:11;38.90;79.60
4896;DHT22;2463;49.948;8.472;2023-08-21T13:43:38;38.90;80.10
4896;DHT22;2463;49.948;8.472;2023-08-21T13:46:06;38.90;78.20
4896;DHT22;2463;49.948;8.472;2023-08-21T13:48:34;38.70;84.80
4896;DHT22;2463;49.948;8.472;2023-08-21T13:51:00;38.60;84.70
4896;DHT22;2463;49.948;8.472;2023-08-21T13:53:27;38.50;86.70
4896;DHT22;2463;49.948;8.472;2023-08-21T13:55:54;38.50;84.40
4896;DHT22;2463;49.948;8.472;2023-08-21T13:58:21;38.50;86.70
4896;DHT22;2463;49.948;8.472;2023-08-21T14:00:47;38.40;85.60
4896;DHT22;2463;49.948;8.472;2023-08-21T14:03:14;38.40;82.80
4896;DHT22;2463;49.948;8.472;2023-08-21T14:05:41;38.40;88.00
4896;DHT22;2463;49.948;8.472;2023-08-21T14:08:08;38.40;88.20
4896;DHT22;2463;49.948;8.472;2023-08-21T14:10:34;38.40;83.60
4896;DHT22;2463;49.948;8.472;2023-08-21T14:13:02;38.30;90.10
4896;DHT22;2463;49.948;8.472;2023-08-21T14:15:30;38.40;87.80
4896;DHT22;2463;49.948;8.472;2023-08-21T14:17:57;38.40;84.00
4896;DHT22;2463;49.948;8.472;2023-08-21T14:20:23;38.00;81.40
4896;DHT22;2463;49.948;8.472;2023-08-21T14:22:50;37.40;83.20
4896;DHT22;2463;49.948;8.472;2023-08-21T14:25:17;37.20;83.60
4896;DHT22;2463;49.948;8.472;2023-08-21T14:27:44;37.20;88.70
4896;DHT22;2463;49.948;8.472;2023-08-21T14:30:11;37.20;86.00
4896;DHT22;2463;49.948;8.472;2023-08-21T14:32:39;37.10;82.80
4896;DHT22;2463;49.948;8.472;2023-08-21T14:35:06;37.00;84.70
4896;DHT22;2463;49.948;8.472;2023-08-21T14:37:36;37.00;86.50
4896;DHT22;2463;49.948;8.472;2023-08-21T14:40:04;37.10;86.10
4896;DHT22;2463;49.948;8.472;2023-08-21T14:42:34;37.00;88.20
4896;DHT22;2463;49.948;8.472;2023-08-21T14:45:01;37.10;89.30
4896;DHT22;2463;49.948;8.472;2023-08-21T14:47:28;37.10;90.60
4896;DHT22;2463;49.948;8.472;2023-08-21T14:49:55;37.30;90.40
4896;DHT22;2463;49.948;8.472;2023-08-21T14:52:21;37.20;89.80
4896;DHT22;2463;49.948;8.472;2023-08-21T14:54:50;37.20;85.00
4896;DHT22;2463;49.948;8.472;2023-08-21T14:57:17;36.90;85.20
4896;DHT22;2463;49.948;8.472;2023-08-21T14:59:44;37.00;88.40
4896;DHT22;2463;49.948;8.472;2023-08-21T15:02:10;37.20;84.50
4896;DHT22;2463;49.948;8.472;2023-08-21T15:04:37;36.60;83.50
4896;DHT22;2463;49.948;8.472;2023-08-21T15:07:04;36.50;83.90
4896;DHT22;2463;49.948;8.472;2023-08-21T15:09:31;36.50;89.10
4896;DHT22;2463;49.948;8.472;2023-08-21T15:11:57;36.50;90.00
4896;DHT22;2463;49.948;8.472;2023-08-21T15:14:24;36.50;89.30
4896;DHT22;2463;49.948;8.472;2023-08-21T15:16:51;36.20;87.90
4896;DHT22;2463;49.948;8.472;2023-08-21T15:19:27;36.00;90.00
4896;DHT22;2463;49.948;8.472;2023-08-21T15:21:54;35.90;88.40
4896;DHT22;2463;49.948;8.472;2023-08-21T15:24:20;36.00;88.80
4896;DHT22;2463;49.948;8.472;2023-08-21T15:26:47;35.60;86.30
4896;DHT22;2463;49.948;8.472;2023-08-21T15:29:14;35.80;89.60
4896;DHT22;2463;49.948;8.472;2023-08-21T15:31:40;35.80;91.10
4896;DHT22;2463;49.948;8.472;2023-08-21T15:34:07;35.60;91.10
4896;DHT22;2463;49.948;8.472;2023-08-21T15:36:34;35.60;89.50
4896;DHT22;2463;49.948;8.472;2023-08-21T15:39:01;35.60;89.20
4896;DHT22;2463;49.948;8.472;2023-08-21T15:41:29;35.70;90.30
4896;DHT22;2463;49.948;8.472;2023-08-21T15:43:56;35.60;89.20
4896;DHT22;2463;49.948;8.472;2023-08-21T15:46:22;35.70;91.00
4896;DHT22;2463;49.948;8.472;2023-08-21T15:48:49;35.70;92.00
4896;DHT22;2463;49.948;8.472;2023-08-21T15:51:16;35.60;92.40
4896;DHT22;2463;49.948;8.472;2023-08-21T15:53:43;35.60;92.00
4896;DHT22;2463;49.948;8.472;2023-08-21T15:56:09;35.50;90.80
4896;DHT22;2463;49.948;8.472;2023-08-21T15:58:36;35.20;88.20
4896;DHT22;2463;49.948;8.472;2023-08-21T16:01:03;35.00;91.10
4896;DHT22;2463;49.948;8.472;2023-08-21T16:03:29;34.80;92.60
4896;DHT22;2463;49.948;8.472;2023-08-21T16:05:56;34.50;90.90
4896;DHT22;2463;49.948;8.472;2023-08-21T16:08:24;34.30;91.00
4896;DHT22;2463;49.948;8.472;2023-08-21T16:10:51;34.00;90.80
4896;DHT22;2463;49.948;8.472;2023-08-21T16:13:17;33.80;90.80